Time;durP1;ratioP1;P1;durP2;ratioP2;P2;SDS_P1;SDS_P2;PMS_P1;PMS_P2;Temp;Humidity;BMP_temperature;BMP_pressure;BME280_temperature;BME280_humidity;BME280_pressure;Samples;Min_cycle;Max_cycle;Signal;HPM_P1;HPM_P2
2023/06/04 00:01:58;;;;;;;11.30;4.18;;;11.50;99.90;;;;;;5050686;28;20104;-81
2023/06/04 00:04:26;;;;;;;10.90;3.90;;;11.50;99.90;;;;;;5084251;28;20051;-80
2023/06/04 00:06:51;;;;;;;10.55;3.83;;;11.50;99.90;;;;;;5090172;28;20126;-81
2023/06/04 00:09:20;;;;;;;13.90;3.63;;;11.40;99.90;;;;;;5105609;28;20467;-81
2023/06/04 00:11:46;;;;;;;10.70;3.88;;;11.40;99.90;;;;;;5103356;28;20453;-80
2023/06/04 00:14:14;;;;;;;10.65;3.17;;;11.40;99.90;;;;;;5081736;28;20051;-81
2023/06/04 00:16:40;;;;;;;9.75;3.50;;;11.40;99.90;;;;;;5072099;28;20046;-81
2023/06/04 00:19:06;;;;;;;8.23;3.20;;;11.40;99.90;;;;;;5068200;28;20131;-80
2023/06/04 00:21:32;;;;;;;14.10;3.38;;;11.30;99.90;;;;;;5077123;28;20467;-80
2023/06/04 00:24:00;;;;;;;11.75;3.85;;;11.30;99.90;;;;;;5105578;28;20036;-81
2023/06/04 00:26:26;;;;;;;10.45;3.50;;;11.30;99.90;;;;;;5087176;28;20039;-81
2023/06/04 00:28:51;;;;;;;15.43;4.40;;;11.30;99.90;;;;;;5100510;28;20044;-80
2023/06/04 00:31:21;;;;;;;15.27;3.53;;;11.30;99.90;;;;;;5079791;28;20043;-79
2023/06/04 00:33:49;;;;;;;12.80;4.05;;;11.30;99.90;;;;;;5107968;28;20518;-81
2023/06/04 00:36:15;;;;;;;9.38;3.13;;;11.30;99.90;;;;;;5087449;28;20051;-80
2023/06/04 00:38:41;;;;;;;8.13;2.95;;;11.30;99.90;;;;;;5061303;28;20253;-79
2023/06/04 00:41:06;;;;;;;10.00;3.60;;;11.20;99.90;;;;;;5106925;28;20035;-78
2023/06/04 00:43:32;;;;;;;9.32;3.15;;;11.20;99.90;;;;;;5100370;28;20115;-81
2023/06/04 00:45:59;;;;;;;13.63;3.30;;;11.20;99.90;;;;;;5080816;28;20094;-81
2023/06/04 00:48:27;;;;;;;11.88;3.55;;;11.10;99.90;;;;;;5103264;28;20062;-81
2023/06/04 00:50:53;;;;;;;9.00;3.35;;;11.10;99.90;;;;;;5105174;28;20035;-81
2023/06/04 00:53:21;;;;;;;10.80;3.10;;;11.10;99.90;;;;;;5083705;28;20089;-80
2023/06/04 00:55:46;;;;;;;9.13;3.47;;;11.10;99.90;;;;;;5087977;28;20046;-79
2023/06/04 00:58:12;;;;;;;9.27;3.75;;;11.10;99.90;;;;;;5086229;28;20402;-79
2023/06/04 01:00:39;;;;;;;9.68;3.55;;;11.10;99.90;;;;;;5101560;28;20521;-79
2023/06/04 01:03:13;;;;;;;12.60;3.88;;;11.10;99.90;;;;;;5098618;28;20392;-80
2023/06/04 01:05:49;;;;;;;8.20;3.50;;;11.00;99.90;;;;;;5086848;28;20051;-80
2023/06/04 01:08:15;;;;;;;10.65;4.15;;;11.00;99.90;;;;;;5082751;28;20046;-79
2023/06/04 01:10:54;;;;;;;8.40;3.10;;;11.00;99.90;;;;;;5106652;28;20036;-80
2023/06/04 01:13:19;;;;;;;11.40;3.88;;;11.00;99.90;;;;;;5064894;28;20039;-80
2023/06/04 01:15:45;;;;;;;13.85;4.15;;;10.90;99.90;;;;;;5081562;28;20031;-80
2023/06/04 01:18:28;;;;;;;12.95;3.85;;;10.90;99.90;;;;;;5081360;28;20552;-80
2023/06/04 01:21:18;;;;;;;11.35;3.45;;;10.90;99.90;;;;;;5082942;28;20059;-79
2023/06/04 01:23:58;;;;;;;9.63;3.40;;;10.90;99.90;;;;;;5082927;28;20054;-79
2023/06/04 01:26:28;;;;;;;9.57;3.35;;;10.90;99.90;;;;;;5065085;28;20059;-80
2023/06/04 01:28:56;;;;;;;13.40;4.85;;;10.80;99.90;;;;;;5070476;28;20134;-79
2023/06/04 01:31:22;;;;;;;14.90;3.90;;;10.80;99.90;;;;;;5101680;28;20128;-80
2023/06/04 01:33:52;;;;;;;10.38;4.53;;;10.80;99.90;;;;;;5084992;28;20051;-80
2023/06/04 01:36:18;;;;;;;9.25;3.70;;;10.70;99.90;;;;;;5100965;28;20062;-81
2023/06/04 01:38:45;;;;;;;13.90;3.58;;;10.70;99.90;;;;;;5105732;28;20047;-79
2023/06/04 01:41:10;;;;;;;12.70;4.15;;;10.70;99.90;;;;;;5088741;28;20483;-79
2023/06/04 01:43:36;;;;;;;9.85;3.88;;;10.70;99.90;;;;;;5103322;28;20047;-80
2023/06/04 01:46:03;;;;;;;8.18;3.55;;;10.60;99.90;;;;;;5100713;28;20357;-79
2023/06/04 01:48:29;;;;;;;17.20;4.07;;;10.60;99.90;;;;;;5087077;28;20136;-80
2023/06/04 01:50:56;;;;;;;11.77;3.60;;;10.60;99.90;;;;;;5100269;28;20110;-80
2023/06/04 01:53:21;;;;;;;9.82;4.18;;;10.60;99.90;;;;;;5108346;28;20031;-80
2023/06/04 01:55:49;;;;;;;12.18;3.80;;;10.50;99.90;;;;;;5095114;28;20036;-81
2023/06/04 01:58:17;;;;;;;10.38;4.10;;;10.50;99.90;;;;;;5106860;27;20039;-80
2023/06/04 02:00:43;;;;;;;16.67;4.57;;;10.50;99.90;;;;;;5090601;28;20161;-80
2023/06/04 02:03:10;;;;;;;7.40;3.20;;;10.50;99.90;;;;;;5090861;28;20043;-79
2023/06/04 02:05:36;;;;;;;7.70;2.90;;;10.50;99.90;;;;;;5090098;28;20047;-80
2023/06/04 02:08:04;;;;;;;6.93;2.95;;;10.40;99.90;;;;;;5106259;28;20048;-79
2023/06/04 02:10:30;;;;;;;6.40;2.53;;;10.40;99.90;;;;;;5107379;28;20040;-81
2023/06/04 02:13:04;;;;;;;7.43;2.83;;;10.30;99.90;;;;;;5087062;28;20513;-80
2023/06/04 02:15:31;;;;;;;12.50;3.63;;;10.40;99.90;;;;;;5084109;28;20040;-81
2023/06/04 02:18:15;;;;;;;8.63;3.17;;;10.30;99.90;;;;;;5108546;28;20126;-80
2023/06/04 02:20:43;;;;;;;11.27;3.22;;;10.30;99.90;;;;;;5067816;28;20498;-80
2023/06/04 02:23:08;;;;;;;8.13;3.55;;;10.30;99.90;;;;;;5089677;28;20150;-80
2023/06/04 02:25:34;;;;;;;9.38;3.53;;;10.30;99.90;;;;;;5085803;28;20127;-79
2023/06/04 02:28:00;;;;;;;9.48;3.25;;;10.30;99.90;;;;;;5090795;28;20035;-80
2023/06/04 02:30:26;;;;;;;11.48;3.58;;;10.20;99.90;;;;;;5081206;27;20695;-80
2023/06/04 02:32:52;;;;;;;7.85;3.10;;;10.20;99.90;;;;;;5085825;28;20043;-81
2023/06/04 02:35:22;;;;;;;9.93;4.10;;;10.10;99.90;;;;;;5086184;28;20607;-80
2023/06/04 02:37:51;;;;;;;9.82;4.38;;;10.20;99.90;;;;;;5106889;28;20047;-80
2023/06/04 02:40:20;;;;;;;14.07;4.82;;;10.10;99.90;;;;;;5105066;27;20087;-80
2023/06/04 02:42:46;;;;;;;12.55;5.10;;;10.20;99.90;;;;;;5087353;27;20040;-80
2023/06/04 02:45:11;;;;;;;11.80;5.25;;;10.20;99.90;;;;;;5102308;28;20071;-80
2023/06/04 02:47:37;;;;;;;12.73;5.15;;;10.20;99.90;;;;;;5104662;27;20533;-80
2023/06/04 02:50:03;;;;;;;13.70;5.32;;;10.20;99.90;;;;;;5106310;28;20544;-79
2023/06/04 02:52:30;;;;;;;16.38;7.65;;;10.20;99.90;;;;;;5084741;28;20472;-80
2023/06/04 02:54:57;;;;;;;17.15;7.30;;;10.20;99.90;;;;;;5103778;28;20050;-80
2023/06/04 02:57:22;;;;;;;15.52;7.63;;;10.20;99.90;;;;;;5067384;28;20044;-79
2023/06/04 02:59:51;;;;;;;15.80;7.70;;;10.10;99.90;;;;;;5088447;28;20047;-80
2023/06/04 03:02:20;;;;;;;18.65;7.43;;;10.10;99.90;;;;;;5086948;28;20049;-80
2023/06/04 03:04:47;;;;;;;19.42;7.07;;;10.20;99.90;;;;;;5087517;28;20467;-80
2023/06/04 03:07:20;;;;;;;12.60;7.78;;;10.10;99.90;;;;;;5083647;28;20043;-80
2023/06/04 03:09:46;;;;;;;15.25;8.43;;;10.10;99.90;;;;;;5102279;28;20154;-80
2023/06/04 03:12:12;;;;;;;15.00;7.15;;;10.10;99.90;;;;;;5070968;28;20031;-80
2023/06/04 03:14:38;;;;;;;17.15;7.25;;;10.10;99.90;;;;;;5100670;28;20046;-79
2023/06/04 03:17:07;;;;;;;15.30;7.32;;;10.10;99.90;;;;;;5087609;28;20400;-80
2023/06/04 03:19:41;;;;;;;19.50;7.35;;;10.00;99.90;;;;;;5088586;28;20297;-80
2023/06/04 03:22:08;;;;;;;18.15;7.30;;;10.00;99.90;;;;;;5077961;28;20526;-81
2023/06/04 03:24:36;;;;;;;11.43;6.50;;;10.00;99.90;;;;;;5083218;28;20491;-81
2023/06/04 03:27:03;;;;;;;15.32;6.53;;;10.00;99.90;;;;;;5089095;28;20132;-80
2023/06/04 03:29:30;;;;;;;15.25;6.88;;;10.00;99.90;;;;;;5092211;28;20130;-80
2023/06/04 03:31:56;;;;;;;14.40;7.03;;;10.00;99.90;;;;;;5107816;28;20466;-81
2023/06/04 03:34:24;;;;;;;13.85;6.80;;;10.00;99.90;;;;;;5085009;28;20039;-81
2023/06/04 03:36:51;;;;;;;12.18;6.90;;;10.00;99.90;;;;;;5087929;28;20054;-81
2023/06/04 03:39:17;;;;;;;15.75;7.25;;;10.00;99.90;;;;;;5085233;28;20039;-81
2023/06/04 03:41:43;;;;;;;13.23;7.65;;;10.00;99.90;;;;;;5103980;28;20482;-81
2023/06/04 03:44:09;;;;;;;10.40;6.93;;;10.00;99.90;;;;;;5101856;28;20047;-80
2023/06/04 03:46:45;;;;;;;15.00;7.22;;;10.00;99.90;;;;;;5085033;22;20348;-85
2023/06/04 03:49:12;;;;;;;14.25;7.32;;;10.10;99.90;;;;;;5015749;28;20048;-83
2023/06/04 03:51:38;;;;;;;17.95;7.32;;;10.10;99.90;;;;;;5017630;28;20076;-83
2023/06/04 03:54:04;;;;;;;12.32;6.70;;;10.10;99.90;;;;;;5026654;28;20118;-82
2023/06/04 03:56:30;;;;;;;13.98;7.35;;;10.20;99.90;;;;;;5026243;28;20088;-82
2023/06/04 03:58:59;;;;;;;16.73;7.35;;;10.20;99.90;;;;;;5025150;28;20041;-83
2023/06/04 04:01:25;;;;;;;15.95;7.07;;;10.30;99.90;;;;;;5027473;28;20069;-83
2023/06/04 04:03:52;;;;;;;15.55;6.47;;;10.30;99.90;;;;;;5025331;28;20128;-83
2023/06/04 04:06:21;;;;;;;12.20;6.50;;;10.40;99.90;;;;;;5009409;28;20041;-81
2023/06/04 04:08:48;;;;;;;11.95;5.40;;;10.50;99.90;;;;;;5023137;28;20042;-82
2023/06/04 04:11:17;;;;;;;9.85;5.78;;;10.70;99.90;;;;;;5018886;28;20049;-82
2023/06/04 04:13:46;;;;;;;9.30;5.13;;;10.80;99.90;;;;;;5025526;28;20041;-82
2023/06/04 04:16:11;;;;;;;12.55;5.95;;;11.20;99.90;;;;;;5024493;28;20452;-82
2023/06/04 04:18:37;;;;;;;9.52;5.80;;;11.60;99.90;;;;;;5020689;28;20484;-82
2023/06/04 04:21:05;;;;;;;12.50;6.25;;;12.00;99.90;;;;;;5024956;28;20042;-82
2023/06/04 04:23:32;;;;;;;14.50;6.40;;;12.20;99.90;;;;;;5031602;28;20045;-83
2023/06/04 04:25:59;;;;;;;17.05;5.88;;;12.30;99.90;;;;;;5030238;28;20465;-82
2023/06/04 04:28:28;;;;;;;10.63;6.22;;;12.20;99.90;;;;;;5012805;28;20052;-82
2023/06/04 04:30:57;;;;;;;12.02;6.53;;;12.10;99.90;;;;;;5022818;28;20045;-82
2023/06/04 04:33:24;;;;;;;12.05;5.90;;;11.90;99.90;;;;;;5022366;28;20500;-82
2023/06/04 04:35:50;;;;;;;12.00;7.25;;;11.70;99.90;;;;;;5011035;28;20044;-82
2023/06/04 04:38:19;;;;;;;13.13;6.88;;;11.60;99.90;;;;;;5005680;28;20128;-83
2023/06/04 04:40:47;;;;;;;13.25;6.82;;;11.50;99.90;;;;;;5018499;28;20057;-82
2023/06/04 04:43:13;;;;;;;10.57;6.88;;;11.40;99.90;;;;;;5022906;28;20045;-84
2023/06/04 04:45:39;;;;;;;11.35;7.07;;;11.40;99.90;;;;;;5037930;28;20070;-81
2023/06/04 04:48:05;;;;;;;10.93;7.25;;;11.40;99.90;;;;;;5013510;28;20135;-82
2023/06/04 04:50:31;;;;;;;10.82;7.28;;;11.40;99.90;;;;;;5023744;28;20567;-87
2023/06/04 04:52:58;;;;;;;13.95;7.07;;;11.40;99.90;;;;;;5017900;28;20119;-84
2023/06/04 04:55:24;;;;;;;15.52;8.27;;;11.50;99.90;;;;;;5010243;28;20543;-81
2023/06/04 04:57:54;;;;;;;18.98;7.18;;;11.50;99.90;;;;;;5024847;28;20124;-82
2023/06/04 05:00:20;;;;;;;13.52;7.68;;;11.70;99.90;;;;;;4991231;28;20094;-82
2023/06/04 05:02:46;;;;;;;9.93;6.50;;;11.80;99.90;;;;;;5017490;28;20098;-86
2023/06/04 05:05:12;;;;;;;14.18;7.03;;;11.90;99.90;;;;;;5005329;28;20048;-84
2023/06/04 05:07:38;;;;;;;15.35;7.45;;;12.00;99.90;;;;;;5024894;28;20052;-83
2023/06/04 05:10:03;;;;;;;12.07;6.47;;;12.10;99.90;;;;;;5021002;28;20057;-83
2023/06/04 05:12:31;;;;;;;14.68;6.72;;;12.30;99.90;;;;;;5008640;28;20049;-84
2023/06/04 05:14:57;;;;;;;12.25;5.85;;;12.40;99.90;;;;;;5009518;28;20116;-83
2023/06/04 05:17:30;;;;;;;20.83;6.07;;;12.60;99.90;;;;;;5008486;28;20573;-83
2023/06/04 05:20:11;;;;;;;10.32;4.70;;;12.70;99.90;;;;;;5026460;28;20046;-83
2023/06/04 05:22:37;;;;;;;14.45;5.57;;;12.80;99.90;;;;;;5022567;28;20073;-82
2023/06/04 05:25:03;;;;;;;11.93;5.45;;;13.00;99.90;;;;;;5023323;28;20052;-81
2023/06/04 05:27:31;;;;;;;8.25;4.32;;;13.00;99.90;;;;;;5029513;28;20095;-83
2023/06/04 05:29:57;;;;;;;11.70;4.68;;;13.20;99.90;;;;;;5026607;28;20052;-85
2023/06/04 05:32:23;;;;;;;13.10;5.05;;;13.30;99.90;;;;;;5008132;28;20046;-85
2023/06/04 05:34:50;;;;;;;15.52;4.97;;;13.40;99.90;;;;;;5030418;28;20068;-84
2023/06/04 05:37:19;;;;;;;14.88;5.70;;;13.50;99.90;;;;;;5030193;28;20049;-85
2023/06/04 05:39:45;;;;;;;11.05;4.93;;;13.60;99.90;;;;;;5013898;28;20085;-85
2023/06/04 05:42:10;;;;;;;11.55;5.82;;;13.70;99.90;;;;;;5024824;28;20075;-85
2023/06/04 05:44:36;;;;;;;14.75;6.25;;;13.90;99.90;;;;;;5029776;28;20415;-83
2023/06/04 05:47:01;;;;;;;13.23;6.22;;;13.90;99.90;;;;;;5018984;28;20577;-83
2023/06/04 05:49:27;;;;;;;14.68;7.00;;;14.00;99.90;;;;;;5013067;28;20044;-84
2023/06/04 05:51:53;;;;;;;12.63;5.75;;;14.00;99.90;;;;;;5027916;28;20117;-83
2023/06/04 05:54:21;;;;;;;16.02;6.00;;;14.20;99.90;;;;;;5026575;28;20061;-83
2023/06/04 05:56:51;;;;;;;15.73;6.43;;;14.30;99.90;;;;;;5026834;28;20250;-83
2023/06/04 05:59:17;;;;;;;12.95;4.93;;;14.30;99.90;;;;;;5030063;28;20519;-83
2023/06/04 06:01:43;;;;;;;11.05;5.45;;;14.50;99.90;;;;;;5008862;28;20041;-83
2023/06/04 06:04:10;;;;;;;13.27;5.22;;;14.60;99.90;;;;;;5023765;28;20116;-82
2023/06/04 06:06:36;;;;;;;9.05;4.75;;;14.70;99.90;;;;;;5023128;28;20068;-82
2023/06/04 06:09:02;;;;;;;9.57;4.65;;;14.80;99.90;;;;;;5020695;28;20085;-81
2023/06/04 06:11:28;;;;;;;13.15;4.97;;;14.80;99.90;;;;;;5015619;28;20053;-83
2023/06/04 06:13:53;;;;;;;12.40;4.93;;;14.90;99.90;;;;;;5023176;28;20045;-86
2023/06/04 06:16:22;;;;;;;9.32;4.32;;;15.00;99.90;;;;;;5024563;28;20515;-84
2023/06/04 06:18:47;;;;;;;9.75;4.75;;;15.00;99.90;;;;;;5023991;28;20048;-84
2023/06/04 06:21:13;;;;;;;9.80;4.45;;;15.10;99.90;;;;;;5024681;28;20049;-82
2023/06/04 06:23:38;;;;;;;11.50;4.70;;;15.20;99.90;;;;;;5026226;28;20045;-83
2023/06/04 06:26:07;;;;;;;13.88;3.95;;;15.40;99.90;;;;;;5029254;28;20048;-83
2023/06/04 06:28:33;;;;;;;9.32;4.07;;;15.50;99.90;;;;;;5026518;28;20092;-83
2023/06/04 06:31:00;;;;;;;10.60;4.10;;;15.60;99.90;;;;;;5022769;28;20084;-83
2023/06/04 06:33:25;;;;;;;9.18;4.07;;;15.70;99.90;;;;;;5030773;28;20469;-83
2023/06/04 06:35:51;;;;;;;7.38;3.80;;;15.80;99.90;;;;;;5027511;28;20126;-83
2023/06/04 06:38:17;;;;;;;9.75;3.80;;;15.80;99.90;;;;;;5023743;28;20092;-83
2023/06/04 06:40:42;;;;;;;13.48;4.55;;;15.80;99.90;;;;;;5022345;28;20053;-83
2023/06/04 06:43:11;;;;;;;8.73;3.92;;;15.90;99.90;;;;;;5028098;28;20076;-83
2023/06/04 06:45:37;;;;;;;9.55;3.30;;;16.00;99.90;;;;;;5012294;28;20084;-82
2023/06/04 06:48:03;;;;;;;8.70;3.22;;;16.00;99.90;;;;;;5023965;28;20037;-81
2023/06/04 06:50:29;;;;;;;12.13;4.03;;;16.00;99.90;;;;;;5027109;28;20398;-80
2023/06/04 06:52:58;;;;;;;6.45;3.15;;;16.10;99.90;;;;;;5024305;28;20764;-84
2023/06/04 06:55:23;;;;;;;9.10;3.38;;;16.10;99.90;;;;;;5028079;28;20037;-80
2023/06/04 06:57:49;;;;;;;8.65;3.15;;;16.10;99.90;;;;;;5024813;28;20049;-81
2023/06/04 07:00:16;;;;;;;12.75;4.07;;;16.30;99.90;;;;;;5024942;28;20152;-80
2023/06/04 07:02:42;;;;;;;7.85;3.72;;;16.50;99.90;;;;;;5022009;28;20235;-80
2023/06/04 07:05:08;;;;;;;9.88;3.58;;;16.60;99.90;;;;;;5021207;28;20041;-80
2023/06/04 07:07:33;;;;;;;10.20;3.50;;;16.60;99.90;;;;;;5010770;28;20053;-81
2023/06/04 07:10:03;;;;;;;10.02;2.75;;;16.70;99.90;;;;;;5029246;28;20053;-81
2023/06/04 07:12:29;;;;;;;6.55;2.08;;;16.80;99.90;;;;;;5006231;28;20065;-80
2023/06/04 07:14:55;;;;;;;4.32;2.35;;;16.90;99.90;;;;;;5021588;28;20488;-81
2023/06/04 07:17:22;;;;;;;5.32;2.40;;;17.00;99.90;;;;;;5017690;28;20072;-80
2023/06/04 07:19:47;;;;;;;6.70;2.70;;;17.00;99.90;;;;;;5026774;28;20597;-81
2023/06/04 07:22:15;;;;;;;5.40;1.83;;;17.00;99.90;;;;;;5024461;28;20228;-81
2023/06/04 07:24:41;;;;;;;5.30;2.30;;;17.10;99.90;;;;;;5023902;28;20070;-81
2023/06/04 07:27:12;;;;;;;7.20;2.47;;;17.20;99.90;;;;;;5025559;28;20049;-81
2023/06/04 07:29:38;;;;;;;7.75;2.42;;;17.20;99.90;;;;;;5020705;28;20050;-81
2023/06/04 07:32:04;;;;;;;8.95;2.55;;;17.30;99.90;;;;;;5026773;28;20380;-81
2023/06/04 07:34:29;;;;;;;6.60;2.13;;;17.40;99.90;;;;;;5028290;28;20085;-82
2023/06/04 07:36:55;;;;;;;8.63;2.90;;;17.60;99.90;;;;;;5013316;28;20080;-82
2023/06/04 07:39:21;;;;;;;7.25;2.30;;;17.70;99.90;;;;;;5009740;28;20052;-83
2023/06/04 07:41:47;;;;;;;8.20;2.63;;;17.80;99.90;;;;;;5028145;28;20052;-83
2023/06/04 07:44:12;;;;;;;6.10;2.15;;;17.90;99.90;;;;;;5003751;28;20041;-83
2023/06/04 07:46:38;;;;;;;8.63;2.42;;;18.00;99.90;;;;;;5027714;28;20393;-83
2023/06/04 07:49:04;;;;;;;7.38;2.45;;;18.30;99.90;;;;;;5027228;28;20159;-83
2023/06/04 07:51:29;;;;;;;5.28;2.17;;;18.50;99.90;;;;;;5024116;28;20053;-83
2023/06/04 07:53:55;;;;;;;9.70;2.88;;;18.50;99.90;;;;;;5008145;28;20041;-82
2023/06/04 07:56:21;;;;;;;6.47;2.33;;;18.60;99.90;;;;;;5019956;28;20512;-83
2023/06/04 07:58:55;;;;;;;9.02;2.97;;;18.60;99.90;;;;;;5026521;28;20047;-82
2023/06/04 08:01:21;;;;;;;6.63;2.17;;;18.80;99.90;;;;;;5010988;28;20468;-82
2023/06/04 08:03:50;;;;;;;9.35;3.03;;;18.80;99.90;;;;;;5025623;28;20057;-81
2023/06/04 08:06:16;;;;;;;6.70;2.35;;;18.80;99.90;;;;;;5024338;28;20072;-82
2023/06/04 08:08:45;;;;;;;7.43;2.20;;;18.90;99.90;;;;;;5027915;28;20089;-81
2023/06/04 08:11:14;;;;;;;5.63;2.70;;;19.00;99.90;;;;;;5016056;28;20489;-83
2023/06/04 08:13:40;;;;;;;10.32;2.38;;;19.00;99.90;;;;;;5002332;28;20042;-82
2023/06/04 08:16:07;;;;;;;9.23;2.60;;;19.00;99.90;;;;;;5022413;28;20052;-82
2023/06/04 08:18:38;;;;;;;9.77;2.97;;;19.10;99.90;;;;;;5027219;28;20045;-82
2023/06/04 08:21:04;;;;;;;5.35;2.25;;;19.10;99.90;;;;;;5026725;28;20520;-82
2023/06/04 08:23:30;;;;;;;7.63;2.63;;;19.10;99.90;;;;;;5028304;28;20515;-83
2023/06/04 08:25:56;;;;;;;6.18;2.10;;;19.20;99.90;;;;;;5021967;28;20045;-83
2023/06/04 08:28:25;;;;;;;6.90;2.63;;;19.20;99.90;;;;;;5014610;28;20046;-83
2023/06/04 08:30:50;;;;;;;5.25;2.40;;;19.20;99.90;;;;;;5018956;28;20046;-82
2023/06/04 08:33:16;;;;;;;5.72;1.90;;;19.30;99.90;;;;;;5027001;28;20480;-84
2023/06/04 08:35:42;;;;;;;8.98;2.55;;;19.30;99.90;;;;;;5007721;28;20132;-86
2023/06/04 08:38:07;;;;;;;6.00;1.80;;;19.30;99.90;;;;;;5020053;28;20041;-86
2023/06/04 08:40:34;;;;;;;7.13;1.83;;;19.30;99.90;;;;;;5039147;28;20038;-86
2023/06/04 08:43:01;;;;;;;7.18;1.92;;;19.40;99.90;;;;;;5004727;28;20049;-85
2023/06/04 08:45:27;;;;;;;6.05;1.90;;;19.40;99.90;;;;;;5020969;28;20480;-85
2023/06/04 08:47:57;;;;;;;5.60;2.20;;;19.50;99.90;;;;;;5005600;28;20042;-84
2023/06/04 08:50:25;;;;;;;5.97;2.10;;;19.50;99.90;;;;;;5007527;28;20404;-85
2023/06/04 08:52:55;;;;;;;6.70;2.15;;;19.50;99.90;;;;;;5024803;28;20037;-84
2023/06/04 08:55:22;;;;;;;4.35;1.85;;;19.60;99.90;;;;;;5007637;28;20084;-84
2023/06/04 08:57:52;;;;;;;5.35;1.70;;;19.60;99.90;;;;;;5025828;28;20508;-84
2023/06/04 09:00:19;;;;;;;6.05;2.10;;;19.60;99.90;;;;;;5021941;28;20048;-83
2023/06/04 09:02:46;;;;;;;7.50;2.10;;;19.70;99.90;;;;;;4989758;28;20053;-83
2023/06/04 09:05:19;;;;;;;5.97;2.10;;;19.80;99.90;;;;;;5024488;28;20527;-83
2023/06/04 09:07:46;;;;;;;5.15;2.05;;;19.90;99.90;;;;;;5023555;28;20053;-85
2023/06/04 09:10:17;;;;;;;7.72;2.10;;;20.00;99.90;;;;;;5023118;28;20053;-85
2023/06/04 09:12:46;;;;;;;5.55;2.03;;;20.10;99.90;;;;;;5008050;28;20056;-84
2023/06/04 09:15:12;;;;;;;4.53;1.75;;;20.00;99.90;;;;;;5013817;28;20033;-85
2023/06/04 09:17:38;;;;;;;5.40;2.35;;;19.80;99.90;;;;;;5023065;28;20037;-84
2023/06/04 09:20:08;;;;;;;4.63;1.85;;;19.80;99.90;;;;;;5025605;28;20037;-84
2023/06/04 09:22:35;;;;;;;5.82;2.15;;;19.80;99.90;;;;;;5007649;28;20041;-85
2023/06/04 09:25:04;;;;;;;4.90;1.88;;;19.90;99.90;;;;;;5005011;28;20038;-80
2023/06/04 09:27:38;;;;;;;4.40;1.85;;;20.00;99.90;;;;;;5024391;28;20052;-87
2023/06/04 09:30:05;;;;;;;4.47;2.15;;;20.10;99.90;;;;;;5023177;28;20277;-85
2023/06/04 09:32:31;;;;;;;11.25;2.85;;;19.90;99.90;;;;;;5028051;28;20148;-88
2023/06/04 09:35:12;;;;;;;5.93;2.10;;;20.00;99.90;;;;;;5028823;28;20105;-85
2023/06/04 09:37:39;;;;;;;6.75;2.38;;;20.10;99.90;;;;;;5021697;28;20118;-86
2023/06/04 09:40:09;;;;;;;6.75;2.53;;;20.10;99.90;;;;;;5027827;28;20038;-88
2023/06/04 09:42:45;;;;;;;3.92;1.70;;;20.10;99.90;;;;;;5025661;28;20115;-87
2023/06/04 09:45:12;;;;;;;5.55;1.80;;;20.20;99.90;;;;;;5004963;28;20038;-85
2023/06/04 09:47:44;;;;;;;7.32;2.00;;;20.10;99.90;;;;;;4993739;28;20420;-87
2023/06/04 09:50:13;;;;;;;5.93;2.33;;;20.30;99.90;;;;;;5006554;28;20041;-86
2023/06/04 09:52:39;;;;;;;5.63;1.90;;;20.30;99.90;;;;;;5025840;28;20076;-85
2023/06/04 09:55:19;;;;;;;5.32;2.03;;;20.30;99.90;;;;;;5013507;28;20158;-86
2023/06/04 09:57:49;;;;;;;3.92;1.90;;;20.30;99.90;;;;;;5022858;28;20504;-87
2023/06/04 10:00:22;;;;;;;4.72;1.90;;;20.50;99.90;;;;;;5006966;28;20381;-86
2023/06/04 10:02:55;;;;;;;2.92;1.75;;;20.60;99.90;;;;;;5024499;28;20574;-87
2023/06/04 10:05:22;;;;;;;7.10;2.20;;;20.50;99.90;;;;;;5025660;28;20493;-87
2023/06/04 10:07:51;;;;;;;3.72;2.00;;;20.60;99.90;;;;;;5011315;28;20046;-87
2023/06/04 10:10:24;;;;;;;5.18;2.05;;;20.70;99.90;;;;;;5020066;28;20042;-85
2023/06/04 10:13:03;;;;;;;4.78;1.90;;;20.80;99.90;;;;;;5021485;28;20076;-87
2023/06/04 10:15:29;;;;;;;4.35;1.65;;;20.80;99.90;;;;;;5024266;28;20519;-87
2023/06/04 10:17:55;;;;;;;5.53;1.58;;;20.80;99.90;;;;;;5017135;28;20046;-88
2023/06/04 10:20:22;;;;;;;6.60;2.00;;;20.80;99.90;;;;;;5027601;28;20053;-87
2023/06/04 10:22:49;;;;;;;3.88;2.00;;;20.80;99.90;;;;;;5028018;28;20061;-86
2023/06/04 10:25:25;;;;;;;6.60;1.90;;;20.80;99.90;;;;;;5025253;28;20042;-86
2023/06/04 10:27:51;;;;;;;4.95;2.00;;;20.70;99.90;;;;;;5021282;28;20045;-89
2023/06/04 10:30:17;;;;;;;5.03;1.90;;;20.90;99.90;;;;;;5031734;28;20124;-85
2023/06/04 10:32:43;;;;;;;4.88;1.88;;;20.80;99.90;;;;;;5026694;28;20445;-87
2023/06/04 10:35:09;;;;;;;6.45;1.70;;;20.60;99.90;;;;;;5025426;28;20049;-87
2023/06/04 10:37:34;;;;;;;4.03;1.52;;;20.40;99.90;;;;;;5029929;28;20045;-87
2023/06/04 10:40:00;;;;;;;4.97;1.70;;;20.40;99.90;;;;;;5030545;28;20065;-88
2023/06/04 10:42:37;;;;;;;5.28;2.00;;;20.60;99.90;;;;;;5028922;28;20103;-80
2023/06/04 10:45:03;;;;;;;4.93;1.90;;;20.70;99.90;;;;;;5021878;28;20115;-84
2023/06/04 10:47:30;;;;;;;5.22;1.70;;;20.80;99.90;;;;;;5028751;28;20077;-84
2023/06/04 10:50:10;;;;;;;6.38;2.10;;;20.70;99.90;;;;;;5030205;28;20095;-89
2023/06/04 10:52:37;;;;;;;3.95;1.40;;;20.50;99.90;;;;;;5020319;28;20133;-85
2023/06/04 10:55:04;;;;;;;4.85;2.10;;;20.50;99.90;;;;;;5027361;28;20045;-83
2023/06/04 10:57:31;;;;;;;5.07;1.80;;;20.50;99.90;;;;;;5025866;28;20451;-88
2023/06/04 10:59:59;;;;;;;4.57;1.80;;;20.40;99.90;;;;;;5023692;28;20203;-89
2023/06/04 11:02:25;;;;;;;3.55;1.58;;;20.30;99.90;;;;;;5036266;28;20436;-79
2023/06/04 11:05:06;;;;;;;3.88;1.80;;;20.30;99.90;;;;;;5019677;28;20513;-82
2023/06/04 11:07:47;;;;;;;28.23;4.68;;;20.30;99.90;;;;;;5024344;28;20076;-83
2023/06/04 11:10:14;;;;;;;22.48;4.35;;;20.10;99.90;;;;;;5020767;28;20057;-80
2023/06/04 11:12:47;;;;;;;9.65;2.50;;;20.00;99.90;;;;;;5023078;28;20065;-80
2023/06/04 11:15:14;;;;;;;16.40;3.35;;;20.00;99.90;;;;;;5038542;28;20038;-83
2023/06/04 11:17:54;;;;;;;6.05;2.30;;;20.10;99.90;;;;;;5008963;28;20056;-81
2023/06/04 11:20:22;;;;;;;8.73;2.47;;;20.30;99.90;;;;;;5022410;28;20150;-81
2023/06/04 11:22:59;;;;;;;5.93;2.13;;;20.50;99.90;;;;;;5021285;28;20102;-84
2023/06/04 11:25:26;;;;;;;6.15;1.73;;;20.60;99.90;;;;;;5032036;28;20046;-83
2023/06/04 11:27:53;;;;;;;9.88;2.22;;;20.70;99.90;;;;;;5019462;28;20042;-83
2023/06/04 11:30:24;;;;;;;6.72;2.30;;;20.80;99.90;;;;;;5020106;28;20401;-83
2023/06/04 11:33:03;;;;;;;4.20;2.00;;;20.80;99.90;;;;;;5021997;28;20041;-79
2023/06/04 11:35:28;;;;;;;6.45;1.80;;;20.80;99.90;;;;;;5020030;28;20106;-82
2023/06/04 11:37:56;;;;;;;5.38;2.20;;;20.70;99.90;;;;;;5025124;28;20132;-83
2023/06/04 11:40:22;;;;;;;9.68;2.25;;;20.70;99.90;;;;;;5008297;28;20488;-82
2023/06/04 11:42:48;;;;;;;10.70;2.20;;;20.60;99.90;;;;;;5023176;28;20419;-81
2023/06/04 11:45:18;;;;;;;9.55;2.53;;;20.70;99.90;;;;;;5011122;28;20037;-79
2023/06/04 11:47:49;;;;;;;8.90;2.72;;;20.80;99.90;;;;;;5021142;28;20072;-77
2023/06/04 11:50:18;;;;;;;15.80;3.17;;;20.90;99.90;;;;;;5003416;28;20498;-81
2023/06/04 11:52:44;;;;;;;5.43;2.13;;;20.90;99.90;;;;;;5017413;28;20069;-82
2023/06/04 11:55:11;;;;;;;5.88;2.00;;;21.00;99.90;;;;;;5018550;28;20052;-86
2023/06/04 11:57:37;;;;;;;5.07;2.03;;;20.90;99.90;;;;;;5024951;28;20128;-86
2023/06/04 12:00:10;;;;;;;4.50;1.92;;;20.90;99.90;;;;;;5020526;28;20077;-85
2023/06/04 12:02:56;;;;;;;5.20;1.95;;;20.90;99.90;;;;;;5003941;28;20048;-86
2023/06/04 12:05:28;;;;;;;5.75;1.90;;;21.00;99.90;;;;;;5012893;28;20037;-83
2023/06/04 12:08:09;;;;;;;7.13;2.00;;;20.90;99.90;;;;;;5020540;28;20080;-85
2023/06/04 12:10:42;;;;;;;5.28;2.20;;;21.00;99.90;;;;;;5014988;28;20703;-84
2023/06/04 12:13:09;;;;;;;3.60;1.98;;;20.90;99.90;;;;;;5017632;28;20064;-85
2023/06/04 12:15:35;;;;;;;16.35;3.13;;;20.90;99.90;;;;;;5002337;28;20045;-78
2023/06/04 12:18:02;;;;;;;4.38;2.40;;;21.00;99.90;;;;;;5027029;28;20132;-76
2023/06/04 12:20:39;;;;;;;4.28;2.10;;;21.00;99.90;;;;;;5023758;28;20328;-81
2023/06/04 12:23:05;;;;;;;7.05;2.08;;;20.90;99.90;;;;;;5020164;28;20109;-80
2023/06/04 12:25:33;;;;;;;5.53;2.72;;;20.90;99.90;;;;;;5018551;28;20057;-81
2023/06/04 12:27:58;;;;;;;5.18;2.15;;;20.90;99.90;;;;;;5014336;28;20041;-79
2023/06/04 12:30:35;;;;;;;4.47;2.10;;;20.90;99.90;;;;;;4998862;28;20061;-74
2023/06/04 12:33:01;;;;;;;5.78;2.30;;;20.90;99.90;;;;;;5016812;28;20140;-75
2023/06/04 12:35:26;;;;;;;7.38;2.42;;;21.00;99.90;;;;;;5015891;28;20122;-78
2023/06/04 12:37:52;;;;;;;8.23;2.40;;;20.90;99.90;;;;;;5021103;28;20131;-75
2023/06/04 12:40:18;;;;;;;6.20;2.30;;;20.80;99.90;;;;;;5018574;28;20046;-75
2023/06/04 12:42:43;;;;;;;5.05;2.00;;;20.90;99.90;;;;;;5014243;28;20041;-80
2023/06/04 12:45:12;;;;;;;4.13;2.03;;;20.90;99.90;;;;;;5000540;28;20041;-79
2023/06/04 12:47:37;;;;;;;7.45;2.38;;;20.80;99.90;;;;;;5017985;28;20053;-77